Cotes De La Manche — FQBE — position and weather

sailwx.info

Track history (hours):
 
Tides and Currents Weather Stations Pressure Air Temp Water Temp Dewpoint Dewpoint Depression Visibility Wind Speed Wind Dir Waves Ship Positions

Cotes De La Manche

Last reported at 2014-Sep-30 02:27 UTC. Time now 2014-Sep-30 14:05 UTC.
Position N 45°04' W 000°38'.

Length 25 m; draft 3.7 m.

Type: Other ship. MMSI: 227091000.

Date/timePositionNaut miles runAvg speedWind from/ knotsBaromVisibWave heightAir tempDewpointWater temp
2014-Sep-30 02:27N 45°04' W 000°38'  
2014-Sep-23 15:33N 46°19' W 001°42'1110.3
2014-Sep-23 14:29N 46°30' W 001°48'0 0.2
2014-Sep-23 13:33N 46°30' W 001°48'0 0.0
2014-Sep-22 07:33N 46°30' W 001°48'0 0.0
2014-Sep-22 06:33N 46°30' W 001°48'0 0.0
2014-Sep-22 05:33N 46°30' W 001°48'0 0.0
2014-Sep-22 04:33N 46°30' W 001°48'0 0.0
2014-Sep-22 03:33N 46°30' W 001°48'0 0.0
2014-Sep-22 02:33N 46°30' W 001°48'0 0.0
2014-Sep-22 01:33N 46°30' W 001°48'0 0.0
2014-Sep-22 00:33N 46°30' W 001°48'0 0.0
2014-Sep-21 23:33N 46°30' W 001°48'0 0.0
2014-Sep-21 22:33N 46°30' W 001°48'0 0.0
2014-Sep-21 21:33N 46°30' W 001°48'0 0.0
2014-Sep-21 20:33N 46°30' W 001°48'0 0.0
2014-Sep-21 19:33N 46°30' W 001°48'0 0.0
2014-Sep-21 18:33N 46°30' W 001°48'0 0.0
2014-Sep-21 17:33N 46°30' W 001°48'0 0.0
2014-Sep-21 16:33N 46°30' W 001°48'0 0.0
2014-Sep-21 15:33N 46°30' W 001°48'0 0.1
2014-Sep-21 14:33N 46°30' W 001°47'1 1.4
2014-Sep-21 13:33N 46°28' W 001°47'0 0.1
2014-Sep-21 12:33N 46°28' W 001°47'0 0.0
2014-Sep-21 11:33N 46°28' W 001°47'0 0.0
2014-Sep-21 10:33N 46°28' W 001°47'1 0.6
2014-Sep-21 09:33N 46°28' W 001°48'10 9.7
2014-Sep-21 08:33N 46°34' W 001°59'143 9.5
2014-Sep-20 17:33N 48°02' W 004°45'1510.7
2014-Sep-20 16:10N 48°16' W 004°38'710.7
2014-Sep-20 15:33N 48°21' W 004°32'3 2.9
2014-Sep-20 14:33N 48°23' W 004°29'0 0.2
2014-Sep-20 13:33N 48°23' W 004°29'0 0.3
2014-Sep-20 12:33N 48°23' W 004°29'6 6.3
2014-Sep-20 11:33N 48°19' W 004°36'3 1.6
2014-Sep-20 09:23N 48°17' W 004°41'2 2.0
2014-Sep-20 08:33N 48°17' W 004°38'1 0.5
2014-Sep-20 06:32N 48°18' W 004°40'3 1.3
2014-Sep-20 04:28N 48°17' W 004°36'0 0.0
2014-Sep-20 03:05N 48°17' W 004°36'  
Track history (hours):
 
Tides and Currents Weather Stations Pressure Air Temp Water Temp Dewpoint Dewpoint Depression Visibility Wind Speed Wind Dir Waves Ship Positions

Cotes De La Manche

Last reported at 2014-Sep-30 02:27 UTC. Time now 2014-Sep-30 14:05 UTC.
Position N 45°04' W 000°38'.

Length 25 m; draft 3.7 m.

Type: Other ship. MMSI: 227091000.

Date/timePositionNaut miles runAvg speedWind from/ knotsBaromVisibWave heightAir tempDewpointWater temp
2014-Sep-30 02:27N 45°04' W 000°38'  
2014-Sep-23 15:33N 46°19' W 001°42'1110.3
2014-Sep-23 14:29N 46°30' W 001°48'0 0.2
2014-Sep-23 13:33N 46°30' W 001°48'0 0.0
2014-Sep-22 07:33N 46°30' W 001°48'0 0.0
2014-Sep-22 06:33N 46°30' W 001°48'0 0.0
2014-Sep-22 05:33N 46°30' W 001°48'0 0.0
2014-Sep-22 04:33N 46°30' W 001°48'0 0.0
2014-Sep-22 03:33N 46°30' W 001°48'0 0.0
2014-Sep-22 02:33N 46°30' W 001°48'0 0.0
2014-Sep-22 01:33N 46°30' W 001°48'0 0.0
2014-Sep-22 00:33N 46°30' W 001°48'0 0.0
2014-Sep-21 23:33N 46°30' W 001°48'0 0.0
2014-Sep-21 22:33N 46°30' W 001°48'0 0.0
2014-Sep-21 21:33N 46°30' W 001°48'0 0.0
2014-Sep-21 20:33N 46°30' W 001°48'0 0.0
2014-Sep-21 19:33N 46°30' W 001°48'0 0.0
2014-Sep-21 18:33N 46°30' W 001°48'0 0.0
2014-Sep-21 17:33N 46°30' W 001°48'0 0.0
2014-Sep-21 16:33N 46°30' W 001°48'0 0.0
2014-Sep-21 15:33N 46°30' W 001°48'0 0.1
2014-Sep-21 14:33N 46°30' W 001°47'1 1.4
2014-Sep-21 13:33N 46°28' W 001°47'0 0.1
2014-Sep-21 12:33N 46°28' W 001°47'0 0.0
2014-Sep-21 11:33N 46°28' W 001°47'0 0.0
2014-Sep-21 10:33N 46°28' W 001°47'1 0.6
2014-Sep-21 09:33N 46°28' W 001°48'10 9.7
2014-Sep-21 08:33N 46°34' W 001°59'143 9.5
2014-Sep-20 17:33N 48°02' W 004°45'1510.7
2014-Sep-20 16:10N 48°16' W 004°38'710.7
2014-Sep-20 15:33N 48°21' W 004°32'3 2.9
2014-Sep-20 14:33N 48°23' W 004°29'0 0.2
2014-Sep-20 13:33N 48°23' W 004°29'0 0.3
2014-Sep-20 12:33N 48°23' W 004°29'6 6.3
2014-Sep-20 11:33N 48°19' W 004°36'3 1.6
2014-Sep-20 09:23N 48°17' W 004°41'2 2.0
2014-Sep-20 08:33N 48°17' W 004°38'1 0.5
2014-Sep-20 06:32N 48°18' W 004°40'3 1.3
2014-Sep-20 04:28N 48°17' W 004°36'0 0.0
2014-Sep-20 03:05N 48°17' W 004°36'  

Dump ship's entire track history